sensor_id;sensor_type;location;lat;lon;timestamp;pressure;altitude;pressure_sealevel;temperature;humidity
34931;BME280;21134;49.646;8.560;2024-02-14T00:01:14;100846.28;;;5.03;91.68
34931;BME280;21134;49.646;8.560;2024-02-14T00:03:40;100845.56;;;5.07;91.53
34931;BME280;21134;49.646;8.560;2024-02-14T00:06:07;100839.66;;;5.08;91.25
34931;BME280;21134;49.646;8.560;2024-02-14T00:08:35;100847.38;;;5.13;91.55
34931;BME280;21134;49.646;8.560;2024-02-14T00:11:03;100847.47;;;5.16;91.16
34931;BME280;21134;49.646;8.560;2024-02-14T00:13:29;100857.00;;;5.23;91.21
34931;BME280;21134;49.646;8.560;2024-02-14T00:15:59;100852.03;;;5.28;90.75
34931;BME280;21134;49.646;8.560;2024-02-14T00:18:26;100854.59;;;5.29;91.33
34931;BME280;21134;49.646;8.560;2024-02-14T00:20:52;100852.94;;;5.30;91.27
34931;BME280;21134;49.646;8.560;2024-02-14T00:23:19;100858.13;;;5.34;91.13
34931;BME280;21134;49.646;8.560;2024-02-14T00:25:46;100849.81;;;5.40;90.26
34931;BME280;21134;49.646;8.560;2024-02-14T00:28:13;100854.13;;;5.44;90.46
34931;BME280;21134;49.646;8.560;2024-02-14T00:30:39;100856.81;;;5.49;89.91
34931;BME280;21134;49.646;8.560;2024-02-14T00:33:06;100856.00;;;5.51;90.41
34931;BME280;21134;49.646;8.560;2024-02-14T00:35:32;100855.28;;;5.55;89.77
34931;BME280;21134;49.646;8.560;2024-02-14T00:37:59;100843.53;;;5.59;89.82
34931;BME280;21134;49.646;8.560;2024-02-14T00:40:25;100855.44;;;5.62;89.48
34931;BME280;21134;49.646;8.560;2024-02-14T00:42:53;100848.75;;;5.65;88.64
34931;BME280;21134;49.646;8.560;2024-02-14T00:45:20;100844.63;;;5.70;88.42
34931;BME280;21134;49.646;8.560;2024-02-14T00:47:46;100853.09;;;5.71;88.48
34931;BME280;21134;49.646;8.560;2024-02-14T00:50:12;100844.78;;;5.76;87.66
34931;BME280;21134;49.646;8.560;2024-02-14T00:52:39;100838.09;;;5.80;87.92
34931;BME280;21134;49.646;8.560;2024-02-14T00:55:06;100833.06;;;5.81;88.28
34931;BME280;21134;49.646;8.560;2024-02-14T00:57:32;100828.78;;;5.80;88.23
34931;BME280;21134;49.646;8.560;2024-02-14T01:00:00;100827.38;;;5.92;86.85
34931;BME280;21134;49.646;8.560;2024-02-14T01:02:27;100833.28;;;5.91;87.04
34931;BME280;21134;49.646;8.560;2024-02-14T01:04:54;100832.50;;;5.93;87.07
34931;BME280;21134;49.646;8.560;2024-02-14T01:07:20;100827.31;;;5.90;88.35
34931;BME280;21134;49.646;8.560;2024-02-14T01:09:46;100826.47;;;5.90;87.99
34931;BME280;21134;49.646;8.560;2024-02-14T01:12:13;100829.84;;;5.90;88.26
34931;BME280;21134;49.646;8.560;2024-02-14T01:14:39;100823.06;;;5.89;88.56
34931;BME280;21134;49.646;8.560;2024-02-14T01:17:08;100824.03;;;5.93;88.47
34931;BME280;21134;49.646;8.560;2024-02-14T01:19:34;100822.25;;;5.90;88.96
34931;BME280;21134;49.646;8.560;2024-02-14T01:22:01;100823.25;;;5.95;88.54
34931;BME280;21134;49.646;8.560;2024-02-14T01:24:27;100820.72;;;5.95;88.73
34931;BME280;21134;49.646;8.560;2024-02-14T01:26:55;100819.94;;;5.98;89.97
34931;BME280;21134;49.646;8.560;2024-02-14T01:29:21;100813.25;;;6.03;90.13
34931;BME280;21134;49.646;8.560;2024-02-14T01:31:48;100808.81;;;5.93;90.58
34931;BME280;21134;49.646;8.560;2024-02-14T01:34:16;100808.63;;;5.87;91.74
34931;BME280;21134;49.646;8.560;2024-02-14T01:36:43;100810.31;;;5.86;91.95
34931;BME280;21134;49.646;8.560;2024-02-14T01:39:09;100810.94;;;5.77;92.76
34931;BME280;21134;49.646;8.560;2024-02-14T01:41:36;100802.41;;;5.74;93.20
34931;BME280;21134;49.646;8.560;2024-02-14T01:44:03;100801.47;;;5.70;94.00
34931;BME280;21134;49.646;8.560;2024-02-14T01:46:29;100787.22;;;5.75;93.46
34931;BME280;21134;49.646;8.560;2024-02-14T01:48:56;100793.25;;;5.80;92.92
34931;BME280;21134;49.646;8.560;2024-02-14T01:51:24;100786.44;;;5.78;93.63
34931;BME280;21134;49.646;8.560;2024-02-14T01:53:51;100785.53;;;5.76;92.92
34931;BME280;21134;49.646;8.560;2024-02-14T01:56:18;100775.44;;;5.79;92.64
34931;BME280;21134;49.646;8.560;2024-02-14T01:58:45;100768.75;;;5.82;92.38
34931;BME280;21134;49.646;8.560;2024-02-14T02:01:11;100777.16;;;5.80;92.42
34931;BME280;21134;49.646;8.560;2024-02-14T02:03:38;100775.47;;;5.80;92.61
34931;BME280;21134;49.646;8.560;2024-02-14T02:06:05;100783.16;;;5.83;92.80
34931;BME280;21134;49.646;8.560;2024-02-14T02:08:33;100772.34;;;5.91;91.92
34931;BME280;21134;49.646;8.560;2024-02-14T02:11:00;100777.53;;;5.95;91.31
34931;BME280;21134;49.646;8.560;2024-02-14T02:13:27;100769.00;;;5.93;91.95
34931;BME280;21134;49.646;8.560;2024-02-14T02:15:53;100765.56;;;5.91;92.29
34931;BME280;21134;49.646;8.560;2024-02-14T02:18:20;100768.03;;;5.88;92.59
34931;BME280;21134;49.646;8.560;2024-02-14T02:20:46;100770.50;;;5.85;92.15
34931;BME280;21134;49.646;8.560;2024-02-14T02:23:14;100759.38;;;5.80;91.94
34931;BME280;21134;49.646;8.560;2024-02-14T02:25:41;100765.25;;;5.77;91.69
34931;BME280;21134;49.646;8.560;2024-02-14T02:28:08;100768.66;;;5.78;91.75
34931;BME280;21134;49.646;8.560;2024-02-14T02:30:35;100752.50;;;5.74;92.60
34931;BME280;21134;49.646;8.560;2024-02-14T02:33:01;100754.31;;;5.80;92.46
34931;BME280;21134;49.646;8.560;2024-02-14T02:35:28;100750.97;;;5.81;92.14
34931;BME280;21134;49.646;8.560;2024-02-14T02:37:55;100754.50;;;5.88;91.80
34931;BME280;21134;49.646;8.560;2024-02-14T02:40:24;100757.97;;;5.91;91.74
34931;BME280;21134;49.646;8.560;2024-02-14T02:42:51;100758.13;;;5.97;91.71
34931;BME280;21134;49.646;8.560;2024-02-14T02:45:17;100760.81;;;6.05;91.25
34931;BME280;21134;49.646;8.560;2024-02-14T02:47:44;100769.47;;;6.13;89.94
34931;BME280;21134;49.646;8.560;2024-02-14T02:50:10;100769.53;;;6.16;90.52
34931;BME280;21134;49.646;8.560;2024-02-14T02:52:36;100778.03;;;6.18;90.20
34931;BME280;21134;49.646;8.560;2024-02-14T02:55:04;100771.34;;;6.22;90.76
34931;BME280;21134;49.646;8.560;2024-02-14T02:57:32;100778.16;;;6.24;90.20
34931;BME280;21134;49.646;8.560;2024-02-14T03:00:02;100779.03;;;6.25;90.35
34931;BME280;21134;49.646;8.560;2024-02-14T03:02:30;100783.38;;;6.31;89.84
34931;BME280;21134;49.646;8.560;2024-02-14T03:04:57;100777.53;;;6.35;90.21
34931;BME280;21134;49.646;8.560;2024-02-14T03:07:24;100776.88;;;6.43;89.43
34931;BME280;21134;49.646;8.560;2024-02-14T03:09:50;100784.47;;;6.42;90.10
34931;BME280;21134;49.646;8.560;2024-02-14T03:12:17;100782.00;;;6.45;88.78
34931;BME280;21134;49.646;8.560;2024-02-14T03:14:45;100787.03;;;6.42;90.03
34931;BME280;21134;49.646;8.560;2024-02-14T03:17:12;100794.66;;;6.43;90.28
34931;BME280;21134;49.646;8.560;2024-02-14T03:19:39;100784.59;;;6.48;89.27
34931;BME280;21134;49.646;8.560;2024-02-14T03:22:06;100797.31;;;6.48;88.80
34931;BME280;21134;49.646;8.560;2024-02-14T03:24:34;100798.19;;;6.50;89.10
34931;BME280;21134;49.646;8.560;2024-02-14T03:27:02;100796.50;;;6.50;89.48
34931;BME280;21134;49.646;8.560;2024-02-14T03:29:30;100793.94;;;6.49;89.09
34931;BME280;21134;49.646;8.560;2024-02-14T03:31:58;100785.59;;;6.55;89.43
34931;BME280;21134;49.646;8.560;2024-02-14T03:34:29;100789.91;;;6.60;88.82
34931;BME280;21134;49.646;8.560;2024-02-14T03:36:58;100795.81;;;6.58;88.69
34931;BME280;21134;49.646;8.560;2024-02-14T03:39:24;100801.72;;;6.57;89.62
34931;BME280;21134;49.646;8.560;2024-02-14T03:41:51;100790.78;;;6.61;88.49
34931;BME280;21134;49.646;8.560;2024-02-14T03:44:18;100791.72;;;6.66;88.09
34931;BME280;21134;49.646;8.560;2024-02-14T03:46:44;100791.66;;;6.63;87.82
34931;BME280;21134;49.646;8.560;2024-02-14T03:49:14;100786.56;;;6.63;88.05
34931;BME280;21134;49.646;8.560;2024-02-14T03:51:40;100788.38;;;6.67;87.63
34931;BME280;21134;49.646;8.560;2024-02-14T03:54:07;100781.59;;;6.67;87.85
34931;BME280;21134;49.646;8.560;2024-02-14T03:56:33;100785.06;;;6.72;88.08
34931;BME280;21134;49.646;8.560;2024-02-14T03:59:01;100789.34;;;6.73;87.94
34931;BME280;21134;49.646;8.560;2024-02-14T04:01:28;100791.84;;;6.70;87.92
34931;BME280;21134;49.646;8.560;2024-02-14T04:03:56;100797.84;;;6.74;88.27
34931;BME280;21134;49.646;8.560;2024-02-14T04:06:24;100791.84;;;6.72;87.80
34931;BME280;21134;49.646;8.560;2024-02-14T04:08:52;100796.91;;;6.70;88.50
34931;BME280;21134;49.646;8.560;2024-02-14T04:11:18;100790.94;;;6.68;87.99
34931;BME280;21134;49.646;8.560;2024-02-14T04:13:44;100806.31;;;6.76;87.08
34931;BME280;21134;49.646;8.560;2024-02-14T04:16:11;100796.13;;;6.74;87.24
34931;BME280;21134;49.646;8.560;2024-02-14T04:18:38;100793.66;;;6.79;87.37
34931;BME280;21134;49.646;8.560;2024-02-14T04:21:07;100797.91;;;6.77;87.53
34931;BME280;21134;49.646;8.560;2024-02-14T04:23:35;100802.97;;;6.77;87.62
34931;BME280;21134;49.646;8.560;2024-02-14T04:26:01;100803.84;;;6.79;87.51
34931;BME280;21134;49.646;8.560;2024-02-14T04:28:28;100803.22;;;6.91;86.27
34931;BME280;21134;49.646;8.560;2024-02-14T04:30:54;100809.06;;;6.85;86.90
34931;BME280;21134;49.646;8.560;2024-02-14T04:33:21;100816.69;;;6.85;86.46
34931;BME280;21134;49.646;8.560;2024-02-14T04:35:48;100815.81;;;6.83;87.83
34931;BME280;21134;49.646;8.560;2024-02-14T04:38:14;100807.28;;;6.80;87.52
34931;BME280;21134;49.646;8.560;2024-02-14T04:40:42;100814.06;;;6.81;87.10
34931;BME280;21134;49.646;8.560;2024-02-14T04:43:09;100809.84;;;6.81;87.81
34931;BME280;21134;49.646;8.560;2024-02-14T04:45:35;100806.31;;;6.76;88.48
34931;BME280;21134;49.646;8.560;2024-02-14T04:48:02;100807.22;;;6.78;88.36
34931;BME280;21134;49.646;8.560;2024-02-14T04:50:29;100802.91;;;6.74;89.06
34931;BME280;21134;49.646;8.560;2024-02-14T04:52:56;100797.03;;;6.77;88.00
34931;BME280;21134;49.646;8.560;2024-02-14T04:55:22;100799.47;;;6.72;88.20
34931;BME280;21134;49.646;8.560;2024-02-14T04:57:50;100793.53;;;6.71;88.00
34931;BME280;21134;49.646;8.560;2024-02-14T05:00:17;100800.31;;;6.71;88.78
34931;BME280;21134;49.646;8.560;2024-02-14T05:02:44;100807.94;;;6.71;88.13
34931;BME280;21134;49.646;8.560;2024-02-14T05:05:10;100813.03;;;6.71;89.48
34931;BME280;21134;49.646;8.560;2024-02-14T05:07:37;100803.78;;;6.76;87.79
34931;BME280;21134;49.646;8.560;2024-02-14T05:10:04;100810.66;;;6.80;87.40
34931;BME280;21134;49.646;8.560;2024-02-14T05:12:33;100802.94;;;6.75;88.23
34931;BME280;21134;49.646;8.560;2024-02-14T05:15:01;100814.78;;;6.75;88.89
34931;BME280;21134;49.646;8.560;2024-02-14T05:17:27;100803.91;;;6.81;88.24
34931;BME280;21134;49.646;8.560;2024-02-14T05:19:54;100798.88;;;6.84;86.65
34931;BME280;21134;49.646;8.560;2024-02-14T05:22:20;100798.88;;;6.84;86.40
34931;BME280;21134;49.646;8.560;2024-02-14T05:24:48;100797.22;;;6.87;86.28
34931;BME280;21134;49.646;8.560;2024-02-14T05:27:14;100807.41;;;6.89;86.51
34931;BME280;21134;49.646;8.560;2024-02-14T05:29:40;100806.56;;;6.87;86.54
34931;BME280;21134;49.646;8.560;2024-02-14T05:32:08;100820.97;;;6.88;86.87
34931;BME280;21134;49.646;8.560;2024-02-14T05:34:35;100814.19;;;6.88;87.32
34931;BME280;21134;49.646;8.560;2024-02-14T05:37:01;100824.44;;;6.91;86.44
34931;BME280;21134;49.646;8.560;2024-02-14T05:39:28;100815.88;;;6.86;86.91
34931;BME280;21134;49.646;8.560;2024-02-14T05:41:54;100806.56;;;6.87;87.96
34931;BME280;21134;49.646;8.560;2024-02-14T05:44:21;100810.81;;;6.88;87.10
34931;BME280;21134;49.646;8.560;2024-02-14T05:46:48;100816.81;;;6.91;87.13
34931;BME280;21134;49.646;8.560;2024-02-14T05:49:15;100817.63;;;6.90;86.74
34931;BME280;21134;49.646;8.560;2024-02-14T05:51:42;100817.81;;;6.99;87.38
34931;BME280;21134;49.646;8.560;2024-02-14T05:54:08;100829.59;;;6.94;87.47
34931;BME280;21134;49.646;8.560;2024-02-14T05:56:35;100827.88;;;6.95;87.60
34931;BME280;21134;49.646;8.560;2024-02-14T05:59:01;100827.09;;;6.96;87.33
34931;BME280;21134;49.646;8.560;2024-02-14T06:01:28;100831.28;;;6.94;87.40
34931;BME280;21134;49.646;8.560;2024-02-14T06:03:54;100823.63;;;6.94;87.27
34931;BME280;21134;49.646;8.560;2024-02-14T06:06:22;100814.31;;;6.93;87.11
34931;BME280;21134;49.646;8.560;2024-02-14T06:08:49;100806.69;;;6.94;87.99
34931;BME280;21134;49.646;8.560;2024-02-14T06:11:16;100813.63;;;7.03;87.65
34931;BME280;21134;49.646;8.560;2024-02-14T06:13:45;100814.38;;;6.97;87.28
34931;BME280;21134;49.646;8.560;2024-02-14T06:16:12;100814.38;;;6.97;88.07
34931;BME280;21134;49.646;8.560;2024-02-14T06:18:38;100813.41;;;6.91;89.20
34931;BME280;21134;49.646;8.560;2024-02-14T06:21:05;100817.75;;;6.96;88.53
34931;BME280;21134;49.646;8.560;2024-02-14T06:23:33;100832.13;;;6.94;88.68
34931;BME280;21134;49.646;8.560;2024-02-14T06:26:02;100834.66;;;6.93;88.24
34931;BME280;21134;49.646;8.560;2024-02-14T06:28:29;100835.56;;;6.96;87.73
34931;BME280;21134;49.646;8.560;2024-02-14T06:30:56;100833.16;;;7.04;88.30
34931;BME280;21134;49.646;8.560;2024-02-14T06:33:22;100838.25;;;7.04;87.18
34931;BME280;21134;49.646;8.560;2024-02-14T06:35:48;100846.59;;;6.98;88.34
34931;BME280;21134;49.646;8.560;2024-02-14T06:38:15;100847.50;;;6.99;88.03
34931;BME280;21134;49.646;8.560;2024-02-14T06:40:43;100841.50;;;6.97;88.71
34931;BME280;21134;49.646;8.560;2024-02-14T06:43:09;100853.31;;;6.95;88.47
34931;BME280;21134;49.646;8.560;2024-02-14T06:45:37;100857.53;;;6.93;88.68
34931;BME280;21134;49.646;8.560;2024-02-14T06:48:04;100851.63;;;6.94;88.72
34931;BME280;21134;49.646;8.560;2024-02-14T06:50:31;100856.72;;;6.95;88.73
34931;BME280;21134;49.646;8.560;2024-02-14T06:52:57;100856.84;;;7.00;89.57
34931;BME280;21134;49.646;8.560;2024-02-14T06:55:26;100857.75;;;7.04;88.22
34931;BME280;21134;49.646;8.560;2024-02-14T06:57:54;100870.66;;;7.13;88.10
34931;BME280;21134;49.646;8.560;2024-02-14T07:00:21;100868.94;;;7.12;87.76
34931;BME280;21134;49.646;8.560;2024-02-14T07:02:48;100871.47;;;7.12;88.34
34931;BME280;21134;49.646;8.560;2024-02-14T07:05:14;100872.28;;;7.11;88.38
34931;BME280;21134;49.646;8.560;2024-02-14T07:07:41;100882.56;;;7.15;88.54
34931;BME280;21134;49.646;8.560;2024-02-14T07:10:08;100876.66;;;7.16;87.90
34931;BME280;21134;49.646;8.560;2024-02-14T07:12:35;100878.22;;;7.11;88.65
34931;BME280;21134;49.646;8.560;2024-02-14T07:15:04;100875.00;;;7.18;88.63
34931;BME280;21134;49.646;8.560;2024-02-14T07:17:31;100879.31;;;7.24;87.63
34931;BME280;21134;49.646;8.560;2024-02-14T07:19:58;100887.78;;;7.21;88.52
34931;BME280;21134;49.646;8.560;2024-02-14T07:22:24;100886.94;;;7.22;88.45
34931;BME280;21134;49.646;8.560;2024-02-14T07:24:51;100891.25;;;7.25;89.16
34931;BME280;21134;49.646;8.560;2024-02-14T07:27:19;100893.97;;;7.36;87.98
34931;BME280;21134;49.646;8.560;2024-02-14T07:29:46;100890.59;;;7.37;87.94
34931;BME280;21134;49.646;8.560;2024-02-14T07:32:14;100881.44;;;7.46;87.38
34931;BME280;21134;49.646;8.560;2024-02-14T07:34:40;100889.13;;;7.48;87.39
34931;BME280;21134;49.646;8.560;2024-02-14T07:37:06;100892.56;;;7.52;88.79
34931;BME280;21134;49.646;8.560;2024-02-14T07:39:33;100901.97;;;7.56;87.54
34931;BME280;21134;49.646;8.560;2024-02-14T07:42:00;100885.84;;;7.55;88.43
34931;BME280;21134;49.646;8.560;2024-02-14T07:44:26;100893.53;;;7.58;88.95
34931;BME280;21134;49.646;8.560;2024-02-14T07:46:53;100891.03;;;7.61;87.84
34931;BME280;21134;49.646;8.560;2024-02-14T07:49:20;100897.84;;;7.62;88.55
34931;BME280;21134;49.646;8.560;2024-02-14T07:51:47;100891.13;;;7.66;88.37
34931;BME280;21134;49.646;8.560;2024-02-14T07:54:13;100886.84;;;7.65;87.61
34931;BME280;21134;49.646;8.560;2024-02-14T07:56:40;100887.81;;;7.72;87.90
34931;BME280;21134;49.646;8.560;2024-02-14T07:59:06;100890.41;;;7.75;87.89
34931;BME280;21134;49.646;8.560;2024-02-14T08:01:33;100891.25;;;7.74;87.75
34931;BME280;21134;49.646;8.560;2024-02-14T08:03:59;100892.09;;;7.74;88.78
34931;BME280;21134;49.646;8.560;2024-02-14T08:06:27;100907.38;;;7.73;89.42
34931;BME280;21134;49.646;8.560;2024-02-14T08:08:53;100896.41;;;7.77;87.62
34931;BME280;21134;49.646;8.560;2024-02-14T08:11:24;100893.84;;;7.77;88.68
34931;BME280;21134;49.646;8.560;2024-02-14T08:13:50;100902.44;;;7.82;88.18
34931;BME280;21134;49.646;8.560;2024-02-14T08:16:17;100905.03;;;7.85;87.88
34931;BME280;21134;49.646;8.560;2024-02-14T08:18:43;100899.06;;;7.83;88.75
34931;BME280;21134;49.646;8.560;2024-02-14T08:21:10;100903.47;;;7.91;87.68
34931;BME280;21134;49.646;8.560;2024-02-14T08:23:38;100900.91;;;7.93;88.75
34931;BME280;21134;49.646;8.560;2024-02-14T08:26:07;100908.56;;;7.91;88.81
34931;BME280;21134;49.646;8.560;2024-02-14T08:28:35;100918.66;;;7.87;89.09
34931;BME280;21134;49.646;8.560;2024-02-14T08:31:02;100915.38;;;7.94;88.71
34931;BME280;21134;49.646;8.560;2024-02-14T08:33:28;100907.72;;;7.92;89.31
34931;BME280;21134;49.646;8.560;2024-02-14T08:35:55;100917.06;;;7.92;89.34
34931;BME280;21134;49.646;8.560;2024-02-14T08:38:22;100911.19;;;7.98;89.43
34931;BME280;21134;49.646;8.560;2024-02-14T08:40:50;100913.75;;;7.98;88.99
34931;BME280;21134;49.646;8.560;2024-02-14T08:43:16;100918.91;;;8.02;89.47
34931;BME280;21134;49.646;8.560;2024-02-14T08:45:43;100915.56;;;8.05;90.19
34931;BME280;21134;49.646;8.560;2024-02-14T08:48:09;100919.06;;;8.13;89.97
34931;BME280;21134;49.646;8.560;2024-02-14T08:50:36;100920.75;;;8.11;90.88
34931;BME280;21134;49.646;8.560;2024-02-14T08:53:02;100919.09;;;8.14;89.50
34931;BME280;21134;49.646;8.560;2024-02-14T08:55:29;100907.22;;;8.15;90.30
34931;BME280;21134;49.646;8.560;2024-02-14T08:57:59;100906.38;;;8.16;91.20
34931;BME280;21134;49.646;8.560;2024-02-14T09:00:26;100909.06;;;8.24;90.23
34931;BME280;21134;49.646;8.560;2024-02-14T09:02:52;100903.13;;;8.26;91.33
34931;BME280;21134;49.646;8.560;2024-02-14T09:05:19;100905.81;;;8.34;91.73
34931;BME280;21134;49.646;8.560;2024-02-14T09:07:47;100900.88;;;8.43;91.55
34931;BME280;21134;49.646;8.560;2024-02-14T09:10:13;100906.91;;;8.50;91.79
34931;BME280;21134;49.646;8.560;2024-02-14T09:12:40;100908.72;;;8.55;90.91
34931;BME280;21134;49.646;8.560;2024-02-14T09:15:09;100911.34;;;8.65;91.82
34931;BME280;21134;49.646;8.560;2024-02-14T09:17:37;100901.28;;;8.74;91.63
34931;BME280;21134;49.646;8.560;2024-02-14T09:20:04;100899.66;;;8.79;92.59
34931;BME280;21134;49.646;8.560;2024-02-14T09:22:31;100904.06;;;8.91;91.90
34931;BME280;21134;49.646;8.560;2024-02-14T09:24:59;100899.91;;;8.97;92.47
34931;BME280;21134;49.646;8.560;2024-02-14T09:27:25;100897.41;;;9.03;91.90
34931;BME280;21134;49.646;8.560;2024-02-14T09:29:52;100888.09;;;9.07;92.28
34931;BME280;21134;49.646;8.560;2024-02-14T09:32:19;100894.97;;;9.14;92.45
34931;BME280;21134;49.646;8.560;2024-02-14T09:34:46;100886.56;;;9.23;91.83
34931;BME280;21134;49.646;8.560;2024-02-14T09:37:12;100890.03;;;9.31;91.94
34931;BME280;21134;49.646;8.560;2024-02-14T09:39:39;100896.84;;;9.30;92.24
34931;BME280;21134;49.646;8.560;2024-02-14T09:42:09;100894.31;;;9.29;93.15
34931;BME280;21134;49.646;8.560;2024-02-14T09:44:37;100896.00;;;9.28;93.23
34931;BME280;21134;49.646;8.560;2024-02-14T09:47:05;100896.03;;;9.33;93.25
34931;BME280;21134;49.646;8.560;2024-02-14T09:49:35;100904.69;;;9.46;92.17
34931;BME280;21134;49.646;8.560;2024-02-14T09:52:02;100908.16;;;9.52;91.88
34931;BME280;21134;49.646;8.560;2024-02-14T09:54:28;100910.75;;;9.54;92.18
34931;BME280;21134;49.646;8.560;2024-02-14T09:56:57;100916.66;;;9.51;91.92
34931;BME280;21134;49.646;8.560;2024-02-14T09:59:24;100911.53;;;9.48;93.11
34931;BME280;21134;49.646;8.560;2024-02-14T10:01:50;100911.50;;;9.47;92.75
34931;BME280;21134;49.646;8.560;2024-02-14T10:04:17;100905.56;;;9.49;92.92
34931;BME280;21134;49.646;8.560;2024-02-14T10:06:46;100913.28;;;9.57;92.61
34931;BME280;21134;49.646;8.560;2024-02-14T10:09:18;100915.00;;;9.57;92.79
34931;BME280;21134;49.646;8.560;2024-02-14T10:11:45;100922.63;;;9.52;93.67
34931;BME280;21134;49.646;8.560;2024-02-14T10:14:11;100924.41;;;9.59;93.36
34931;BME280;21134;49.646;8.560;2024-02-14T10:16:38;100933.00;;;9.67;93.75
34931;BME280;21134;49.646;8.560;2024-02-14T10:19:14;100927.91;;;9.69;93.24
34931;BME280;21134;49.646;8.560;2024-02-14T10:21:40;100928.00;;;9.76;92.59
34931;BME280;21134;49.646;8.560;2024-02-14T10:24:08;100934.88;;;9.87;91.93
34931;BME280;21134;49.646;8.560;2024-02-14T10:26:35;100928.16;;;9.96;90.94
34931;BME280;21134;49.646;8.560;2024-02-14T10:29:02;100924.81;;;10.02;91.05
34931;BME280;21134;49.646;8.560;2024-02-14T10:31:29;100928.25;;;10.09;92.46
34931;BME280;21134;49.646;8.560;2024-02-14T10:33:56;100935.09;;;10.13;91.36
34931;BME280;21134;49.646;8.560;2024-02-14T10:36:22;100934.28;;;10.15;90.48
34931;BME280;21134;49.646;8.560;2024-02-14T10:38:50;100935.94;;;10.09;91.11
34931;BME280;21134;49.646;8.560;2024-02-14T10:41:18;100947.88;;;10.10;91.02
34931;BME280;21134;49.646;8.560;2024-02-14T10:43:44;100948.69;;;10.07;90.78
34931;BME280;21134;49.646;8.560;2024-02-14T10:46:15;100952.19;;;10.17;90.84
34931;BME280;21134;49.646;8.560;2024-02-14T10:48:45;100949.66;;;10.20;90.95
34931;BME280;21134;49.646;8.560;2024-02-14T10:51:12;100945.56;;;10.37;90.44
34931;BME280;21134;49.646;8.560;2024-02-14T10:53:40;100931.97;;;10.47;89.95
34931;BME280;21134;49.646;8.560;2024-02-14T10:56:12;100920.97;;;10.65;90.48
34931;BME280;21134;49.646;8.560;2024-02-14T10:58:45;100921.94;;;10.84;89.61
34931;BME280;21134;49.646;8.560;2024-02-14T11:01:12;100931.41;;;10.94;88.73
34931;BME280;21134;49.646;8.560;2024-02-14T11:03:40;100939.91;;;10.93;88.54
34931;BME280;21134;49.646;8.560;2024-02-14T11:06:16;100945.00;;;10.89;88.62
34931;BME280;21134;49.646;8.560;2024-02-14T11:08:55;100946.66;;;10.79;88.34
34931;BME280;21134;49.646;8.560;2024-02-14T11:11:22;100950.97;;;10.88;88.33
34931;BME280;21134;49.646;8.560;2024-02-14T11:13:53;100950.16;;;10.92;89.24
34931;BME280;21134;49.646;8.560;2024-02-14T11:16:23;100953.63;;;11.06;88.34
34931;BME280;21134;49.646;8.560;2024-02-14T11:18:53;100959.66;;;11.17;88.35
34931;BME280;21134;49.646;8.560;2024-02-14T11:21:20;100951.97;;;11.19;87.27
34931;BME280;21134;49.646;8.560;2024-02-14T11:23:53;100954.53;;;11.17;86.81
34931;BME280;21134;49.646;8.560;2024-02-14T11:26:20;100952.81;;;11.20;87.24
34931;BME280;21134;49.646;8.560;2024-02-14T11:28:48;100955.41;;;11.26;87.29
34931;BME280;21134;49.646;8.560;2024-02-14T11:31:17;100942.59;;;11.23;87.16
34931;BME280;21134;49.646;8.560;2024-02-14T11:33:44;100935.75;;;11.22;88.82
34931;BME280;21134;49.646;8.560;2024-02-14T11:36:12;100935.78;;;11.23;88.82
34931;BME280;21134;49.646;8.560;2024-02-14T11:38:40;100925.53;;;11.31;88.67
34931;BME280;21134;49.646;8.560;2024-02-14T11:41:08;100925.56;;;11.41;87.91
34931;BME280;21134;49.646;8.560;2024-02-14T11:43:36;100932.44;;;11.50;88.28
34931;BME280;21134;49.646;8.560;2024-02-14T11:46:04;100925.59;;;11.57;87.83
34931;BME280;21134;49.646;8.560;2024-02-14T11:48:32;100929.06;;;11.65;88.45
34931;BME280;21134;49.646;8.560;2024-02-14T11:50:59;100931.59;;;11.67;86.48
34931;BME280;21134;49.646;8.560;2024-02-14T11:53:25;100923.06;;;11.63;87.33
34931;BME280;21134;49.646;8.560;2024-02-14T11:55:55;100920.47;;;11.52;87.50
34931;BME280;21134;49.646;8.560;2024-02-14T11:58:22;100932.44;;;11.59;88.23
34931;BME280;21134;49.646;8.560;2024-02-14T12:00:48;100929.03;;;11.67;88.23
34931;BME280;21134;49.646;8.560;2024-02-14T12:03:17;100922.22;;;11.69;87.07
34931;BME280;21134;49.646;8.560;2024-02-14T12:05:46;100921.31;;;11.57;88.00
34931;BME280;21134;49.646;8.560;2024-02-14T12:08:13;100914.50;;;11.50;88.01
34931;BME280;21134;49.646;8.560;2024-02-14T12:10:42;100909.38;;;11.49;89.22
34931;BME280;21134;49.646;8.560;2024-02-14T12:13:13;100905.09;;;11.52;88.63
34931;BME280;21134;49.646;8.560;2024-02-14T12:15:40;100908.50;;;11.54;88.68
34931;BME280;21134;49.646;8.560;2024-02-14T12:18:05;100921.31;;;11.50;89.49
34931;BME280;21134;49.646;8.560;2024-02-14T12:20:32;100926.44;;;11.48;89.07
34931;BME280;21134;49.646;8.560;2024-02-14T12:23:00;100927.28;;;11.44;88.89
34931;BME280;21134;49.646;8.560;2024-02-14T12:25:27;100916.16;;;11.39;90.43
34931;BME280;21134;49.646;8.560;2024-02-14T12:27:56;100917.06;;;11.50;88.67
34931;BME280;21134;49.646;8.560;2024-02-14T12:30:23;100923.00;;;11.41;88.99
34931;BME280;21134;49.646;8.560;2024-02-14T12:32:58;100917.88;;;11.40;89.18
34931;BME280;21134;49.646;8.560;2024-02-14T12:35:24;100908.50;;;11.36;89.94
34931;BME280;21134;49.646;8.560;2024-02-14T12:37:50;100911.03;;;11.42;90.01
34931;BME280;21134;49.646;8.560;2024-02-14T12:40:20;100909.38;;;11.49;89.76
34931;BME280;21134;49.646;8.560;2024-02-14T12:42:46;100906.78;;;11.52;88.92
34931;BME280;21134;49.646;8.560;2024-02-14T12:45:13;100913.63;;;11.48;89.80
34931;BME280;21134;49.646;8.560;2024-02-14T12:47:39;100905.94;;;11.40;89.19
34931;BME280;21134;49.646;8.560;2024-02-14T12:50:08;100905.91;;;11.39;90.17
34931;BME280;21134;49.646;8.560;2024-02-14T12:52:35;100911.94;;;11.49;89.85
34931;BME280;21134;49.646;8.560;2024-02-14T12:55:02;100907.63;;;11.40;90.75
34931;BME280;21134;49.646;8.560;2024-02-14T12:57:29;100912.75;;;11.38;90.30